KFSW

Fort Madison Municipal Airport

Fort Madison, Iowa, USA
METAR KFSW 270735Z AUTO 00000KT 10SM CLR 21/19 A2982 RMK AO2
Observed Flight Rules
May-27 @ 07:35 UTC (15 minutes ago) Visual Flight Rules
Visibility Clouds
10 miles
  • Clear skies
Temperatures Readings
Current 21°C / 70°F
Dewpoint 19°C / 66°F
Humidity 88%
Altimeter 29.82" Hg
Pressure 1010 hPa
Elevation 221
METAR KFSW 270735Z AUTO 00000KT 10SM CLR 21/19 A2982 RMK AO2
Observed Flight Rules
May-27 @ 07:35 UTC
(15 minutes ago)
VFR
Clouds
  • Clear skies
Temperature Dewpoint
21°C / 70°F 19°C / 66°F
Humidity Altimeter Pressure
88% 29.82" Hg 1010 hPa